Terminal Aerodrome Forecast
Issued by NWS Pueblo, CO

Home | Current Version | Previous Version | Text Only | Print | Product List | Glossary On
Versions: 1 2 3 4 5 6 7 8 9 10 11 12 13 14 15 16 17 18 19 20 21 22 23 24 25 26 27 28 29 30 31 32 33 34
083
FTUS45 KPUB 261724
TAFALS
TAF
KALS 261724Z 2618/2718 22015G25KT P6SM FEW150
     FM262100 23020G30KT P6SM SCT090 BKN150
     FM270200 20007KT P6SM FEW150
     FM270600 18006KT P6SM SKC=

USA.gov is the U.S. government's official web portal to all federal, state and local government web resources and services.